Time;durP1;ratioP1;P1;durP2;ratioP2;P2;SDS_P1;SDS_P2;PMS_P1;PMS_P2;Temp;Humidity;BMP_temperature;BMP_pressure;BME280_temperature;BME280_humidity;BME280_pressure;Samples;Min_cycle;Max_cycle;Signal;HPM_P1;HPM_P2
2021/07/05 00:01:05;;;;;;;63.50;35.25;;;14.50;99.90;;;;;;4997080;28;20376;-84
2021/07/05 00:03:31;;;;;;;34.40;20.30;;;14.30;99.90;;;;;;5015059;28;20113;-86
2021/07/05 00:05:57;;;;;;;27.08;16.52;;;14.20;99.90;;;;;;4997299;28;20057;-85
2021/07/05 00:08:22;;;;;;;17.05;12.90;;;14.10;99.90;;;;;;5014445;28;20033;-85
2021/07/05 00:10:48;;;;;;;13.60;9.65;;;14.10;99.90;;;;;;4997420;28;20072;-85
2021/07/05 00:13:14;;;;;;;10.93;8.68;;;14.00;99.90;;;;;;4997259;28;20026;-86
2021/07/05 00:15:39;;;;;;;12.80;7.53;;;14.00;99.90;;;;;;5014465;28;20034;-86
2021/07/05 00:18:07;;;;;;;8.70;6.82;;;14.00;99.90;;;;;;5014740;28;20025;-84
2021/07/05 00:20:38;;;;;;;10.27;7.70;;;13.90;99.90;;;;;;4997138;28;20021;-85
2021/07/05 00:23:05;;;;;;;8.55;7.35;;;13.90;99.90;;;;;;4996461;28;20387;-85
2021/07/05 00:25:31;;;;;;;10.10;7.38;;;14.00;99.90;;;;;;4996849;28;20029;-85
2021/07/05 00:27:57;;;;;;;8.82;7.80;;;14.00;99.90;;;;;;5014555;28;20487;-84
2021/07/05 00:30:23;;;;;;;8.30;7.10;;;14.00;99.90;;;;;;4996035;28;20026;-86
2021/07/05 00:32:49;;;;;;;11.60;7.72;;;13.90;99.90;;;;;;4996220;28;20018;-85
2021/07/05 00:35:17;;;;;;;8.57;7.30;;;13.90;99.90;;;;;;5013718;28;20044;-85
2021/07/05 00:37:43;;;;;;;7.57;6.53;;;13.90;99.90;;;;;;4996203;28;20022;-85
2021/07/05 00:40:10;;;;;;;7.70;6.47;;;13.80;99.90;;;;;;4996006;28;20026;-85
2021/07/05 00:42:37;;;;;;;9.55;7.22;;;13.90;99.90;;;;;;4996046;28;20024;-85
2021/07/05 00:45:04;;;;;;;11.07;8.35;;;13.80;99.90;;;;;;4995973;28;20502;-85
2021/07/05 00:47:30;;;;;;;14.82;9.90;;;13.80;99.90;;;;;;4995638;28;20446;-86
2021/07/05 00:49:56;;;;;;;10.00;8.13;;;13.70;99.90;;;;;;4996008;28;20050;-85
2021/07/05 00:52:23;;;;;;;9.70;7.93;;;13.60;99.90;;;;;;4995890;28;20033;-85
2021/07/05 00:54:49;;;;;;;11.77;8.98;;;13.60;99.90;;;;;;4995891;28;20033;-86
2021/07/05 00:57:20;;;;;;;10.05;8.80;;;13.60;99.90;;;;;;4995603;28;20032;-85
2021/07/05 00:59:48;;;;;;;11.20;7.55;;;13.50;99.90;;;;;;5013489;28;20060;-86
2021/07/05 01:02:15;;;;;;;11.38;8.30;;;13.50;99.90;;;;;;5013815;28;20518;-85
2021/07/05 01:04:40;;;;;;;11.63;7.43;;;13.50;99.90;;;;;;4996251;28;20059;-86
2021/07/05 01:07:06;;;;;;;8.32;6.25;;;13.50;99.90;;;;;;4996326;28;20064;-84
2021/07/05 01:09:32;;;;;;;7.82;7.03;;;13.60;99.90;;;;;;4995696;28;20028;-86
2021/07/05 01:11:57;;;;;;;10.52;7.30;;;13.50;99.90;;;;;;5013798;28;20495;-84
2021/07/05 01:14:23;;;;;;;11.10;7.38;;;13.50;99.90;;;;;;5013201;28;20033;-86
2021/07/05 01:16:48;;;;;;;8.48;6.72;;;13.50;99.90;;;;;;4996163;28;20400;-84
2021/07/05 01:19:14;;;;;;;5.63;4.80;;;13.50;99.90;;;;;;4995029;28;20068;-86
2021/07/05 01:21:40;;;;;;;7.40;6.30;;;13.40;99.90;;;;;;4996184;28;20059;-84
2021/07/05 01:24:05;;;;;;;5.72;5.20;;;13.30;99.90;;;;;;4995720;28;20034;-86
2021/07/05 01:26:31;;;;;;;5.90;4.75;;;13.20;99.90;;;;;;5013632;28;20026;-85
2021/07/05 01:28:57;;;;;;;9.52;7.78;;;13.10;99.90;;;;;;5013456;28;20375;-86
2021/07/05 01:31:23;;;;;;;10.43;7.32;;;13.10;99.90;;;;;;4995668;28;20121;-85
2021/07/05 01:33:51;;;;;;;6.60;5.85;;;13.10;99.90;;;;;;4995757;28;20541;-85
2021/07/05 01:36:16;;;;;;;6.35;5.70;;;13.10;99.90;;;;;;5013155;28;20030;-85
2021/07/05 01:38:42;;;;;;;7.95;5.97;;;13.00;99.90;;;;;;5013246;28;20384;-86
2021/07/05 01:41:08;;;;;;;6.35;5.72;;;13.10;99.90;;;;;;4995305;28;20026;-86
2021/07/05 01:43:34;;;;;;;7.97;6.82;;;13.10;99.90;;;;;;4995601;28;20033;-87
2021/07/05 01:46:00;;;;;;;10.88;7.15;;;13.10;99.90;;;;;;4995666;28;20369;-86
2021/07/05 01:48:26;;;;;;;9.15;7.43;;;13.10;99.90;;;;;;4995263;28;20116;-87
2021/07/05 01:50:54;;;;;;;15.90;10.23;;;13.10;99.90;;;;;;5013028;28;20500;-87
2021/07/05 01:53:19;;;;;;;9.63;7.22;;;13.10;99.90;;;;;;5012930;28;20117;-87
2021/07/05 01:55:46;;;;;;;9.35;7.50;;;13.10;99.90;;;;;;4995101;28;20132;-86
2021/07/05 01:58:12;;;;;;;8.00;6.78;;;13.00;99.90;;;;;;5012815;28;20026;-87
2021/07/05 02:00:43;;;;;;;5.05;4.53;;;12.90;99.90;;;;;;5012643;28;20391;-86
2021/07/05 02:03:09;;;;;;;4.10;3.80;;;12.80;99.90;;;;;;5012984;28;20030;-87
2021/07/05 02:05:35;;;;;;;4.97;4.57;;;12.70;99.90;;;;;;4995173;28;20041;-87
2021/07/05 02:08:02;;;;;;;4.00;3.80;;;12.60;99.90;;;;;;4995156;28;20084;-86
2021/07/05 02:10:30;;;;;;;4.55;4.18;;;12.50;99.90;;;;;;5012859;28;20107;-87
2021/07/05 02:12:59;;;;;;;4.28;3.42;;;12.40;99.90;;;;;;4995063;28;20160;-87
2021/07/05 02:15:26;;;;;;;4.35;4.05;;;12.40;99.90;;;;;;4995362;28;20046;-88
2021/07/05 02:17:52;;;;;;;4.90;4.38;;;12.40;99.90;;;;;;4995230;28;20026;-87
2021/07/05 02:20:22;;;;;;;4.90;4.50;;;12.40;99.90;;;;;;5012389;28;20026;-87
2021/07/05 02:22:50;;;;;;;5.13;4.60;;;12.40;99.90;;;;;;4995017;28;20026;-87
2021/07/05 02:25:17;;;;;;;5.22;4.72;;;12.40;99.90;;;;;;5012354;28;20026;-87
2021/07/05 02:27:44;;;;;;;5.30;4.80;;;12.40;99.90;;;;;;4994712;28;20030;-86
2021/07/05 02:30:13;;;;;;;5.88;5.13;;;12.50;99.90;;;;;;5012563;28;20057;-87
2021/07/05 02:32:41;;;;;;;5.40;4.82;;;12.50;99.90;;;;;;5012527;28;20028;-86
2021/07/05 02:35:09;;;;;;;6.60;6.00;;;12.40;99.90;;;;;;4994703;28;20042;-86
2021/07/05 02:37:34;;;;;;;6.10;5.50;;;12.40;99.90;;;;;;4994822;28;20034;-87
2021/07/05 02:40:00;;;;;;;7.57;6.07;;;12.40;99.90;;;;;;4994694;28;20386;-86
2021/07/05 02:42:25;;;;;;;6.95;5.95;;;12.40;99.90;;;;;;5012266;28;20037;-85
2021/07/05 02:44:51;;;;;;;11.23;6.50;;;12.40;99.90;;;;;;4994828;28;20116;-87
2021/07/05 02:47:17;;;;;;;5.75;5.28;;;12.40;99.90;;;;;;5011943;28;20063;-84
2021/07/05 02:49:42;;;;;;;5.65;5.10;;;12.40;99.90;;;;;;4994884;28;20066;-86
2021/07/05 02:52:08;;;;;;;5.78;5.13;;;12.40;99.90;;;;;;4994499;28;20457;-87
2021/07/05 02:54:33;;;;;;;5.80;5.30;;;12.30;99.90;;;;;;4994724;28;20610;-87
2021/07/05 02:56:59;;;;;;;5.93;5.32;;;12.30;99.90;;;;;;5012126;28;20097;-85
2021/07/05 02:59:25;;;;;;;8.10;6.72;;;12.40;99.90;;;;;;4994517;28;20379;-87
2021/07/05 03:01:50;;;;;;;8.70;7.25;;;12.40;99.90;;;;;;5012644;28;20134;-87
2021/07/05 03:04:16;;;;;;;7.50;6.45;;;12.40;99.90;;;;;;5011929;28;20375;-86
2021/07/05 03:06:41;;;;;;;12.95;7.68;;;12.40;99.90;;;;;;4994596;28;20467;-87
2021/07/05 03:09:07;;;;;;;13.95;8.90;;;12.40;99.90;;;;;;5011971;28;20029;-87
2021/07/05 03:11:33;;;;;;;15.30;8.93;;;12.50;99.90;;;;;;4994415;28;20116;-85
2021/07/05 03:13:58;;;;;;;16.42;9.48;;;12.50;99.90;;;;;;5011797;28;20030;-87
2021/07/05 03:16:24;;;;;;;14.27;8.85;;;12.60;99.90;;;;;;5011924;28;20068;-86
2021/07/05 03:18:50;;;;;;;9.75;7.95;;;12.60;99.90;;;;;;5011950;28;20084;-86
2021/07/05 03:21:15;;;;;;;9.90;7.57;;;12.60;99.90;;;;;;5011824;28;20491;-86
2021/07/05 03:23:41;;;;;;;10.25;7.88;;;12.70;99.90;;;;;;4993980;28;20030;-85
2021/07/05 03:26:07;;;;;;;9.65;6.85;;;12.70;99.90;;;;;;5011858;28;20029;-84
2021/07/05 03:28:33;;;;;;;10.80;7.72;;;12.80;99.90;;;;;;5011784;28;20046;-86
2021/07/05 03:30:58;;;;;;;13.90;7.75;;;12.90;99.90;;;;;;5027180;28;20105;-84
2021/07/05 03:33:24;;;;;;;9.50;7.00;;;13.10;99.90;;;;;;5011725;28;20094;-86
2021/07/05 03:35:50;;;;;;;7.53;6.50;;;13.20;99.90;;;;;;5011921;28;20085;-85
2021/07/05 03:38:18;;;;;;;7.50;6.43;;;13.40;99.90;;;;;;4994119;28;20022;-86
2021/07/05 03:40:45;;;;;;;8.82;6.80;;;13.60;99.90;;;;;;5011588;28;20032;-86
2021/07/05 03:43:11;;;;;;;12.30;9.80;;;13.80;99.90;;;;;;5014403;28;20109;-86
2021/07/05 03:45:38;;;;;;;14.77;8.85;;;13.90;99.90;;;;;;5015551;28;20061;-86
2021/07/05 03:48:05;;;;;;;7.88;6.53;;;14.10;99.10;;;;;;4997534;28;20192;-87
2021/07/05 03:50:32;;;;;;;8.57;6.18;;;14.20;97.30;;;;;;4997749;28;20088;-87
2021/07/05 03:52:58;;;;;;;6.13;5.50;;;14.50;95.70;;;;;;4997751;28;20088;-87
2021/07/05 03:55:26;;;;;;;6.25;5.57;;;14.70;95.40;;;;;;5015143;28;20034;-87
2021/07/05 03:57:52;;;;;;;5.20;4.78;;;14.90;94.10;;;;;;5015336;28;20022;-87
2021/07/05 04:00:24;;;;;;;6.55;4.78;;;15.10;92.70;;;;;;4997548;28;20034;-87
2021/07/05 04:02:50;;;;;;;7.85;6.22;;;15.30;91.30;;;;;;5015170;28;20022;-87
2021/07/05 04:05:16;;;;;;;7.95;6.47;;;15.50;87.70;;;;;;5015235;28;20471;-86
2021/07/05 04:07:43;;;;;;;11.88;6.60;;;15.60;86.40;;;;;;5014703;28;20041;-86
2021/07/05 04:10:10;;;;;;;10.20;6.35;;;15.70;87.00;;;;;;4997256;28;20061;-87
2021/07/05 04:12:36;;;;;;;9.32;6.32;;;15.70;88.00;;;;;;4997395;28;20029;-85
2021/07/05 04:15:04;;;;;;;10.02;5.88;;;15.80;88.00;;;;;;4997178;28;20377;-87
2021/07/05 04:17:29;;;;;;;8.07;5.53;;;15.90;87.60;;;;;;5014931;28;20514;-86
2021/07/05 04:19:55;;;;;;;7.25;5.88;;;16.20;87.30;;;;;;5015442;28;20101;-87
2021/07/05 04:22:21;;;;;;;11.80;6.30;;;16.40;86.90;;;;;;5013665;28;20364;-86
2021/07/05 04:24:47;;;;;;;8.13;6.47;;;16.60;87.00;;;;;;5014615;28;20418;-88
2021/07/05 04:27:14;;;;;;;13.38;7.07;;;16.70;87.10;;;;;;4996987;28;20148;-86
2021/07/05 04:29:40;;;;;;;11.18;6.35;;;16.80;87.00;;;;;;5014637;28;20590;-88
2021/07/05 04:32:07;;;;;;;6.95;6.25;;;16.90;87.40;;;;;;4996880;28;20493;-88
2021/07/05 04:34:34;;;;;;;7.75;7.05;;;17.10;88.00;;;;;;5014502;28;20383;-88
2021/07/05 04:36:59;;;;;;;11.75;7.13;;;17.30;88.60;;;;;;4997126;28;20033;-88
2021/07/05 04:39:27;;;;;;;8.70;7.82;;;17.40;88.70;;;;;;5014591;28;20029;-88
2021/07/05 04:41:53;;;;;;;7.82;7.07;;;17.60;89.50;;;;;;5014288;28;20035;-88
2021/07/05 04:44:19;;;;;;;11.63;8.07;;;17.70;90.70;;;;;;4996829;28;20018;-88
2021/07/05 04:46:49;;;;;;;9.63;7.60;;;17.90;91.20;;;;;;4997013;28;20462;-88
2021/07/05 04:49:16;;;;;;;9.30;6.85;;;18.00;91.50;;;;;;4997120;28;20156;-86
2021/07/05 04:51:42;;;;;;;13.07;8.93;;;18.20;91.70;;;;;;5014654;28;20034;-86
2021/07/05 04:54:08;;;;;;;8.85;7.28;;;18.30;93.10;;;;;;4995469;28;20033;-86
2021/07/05 04:56:34;;;;;;;13.30;8.68;;;18.40;94.50;;;;;;4996735;28;20061;-85
2021/07/05 04:59:01;;;;;;;10.55;7.63;;;18.40;96.00;;;;;;5014012;28;20029;-87
2021/07/05 05:01:27;;;;;;;11.38;7.70;;;18.40;98.70;;;;;;4996954;28;20028;-84
2021/07/05 05:03:52;;;;;;;10.30;8.60;;;18.30;99.50;;;;;;5014856;28;20104;-85
2021/07/05 05:06:18;;;;;;;16.10;8.95;;;18.40;99.90;;;;;;4997153;28;20017;-84
2021/07/05 05:08:45;;;;;;;12.63;9.95;;;18.50;99.90;;;;;;4997216;28;20056;-86
2021/07/05 05:11:11;;;;;;;14.13;10.18;;;18.60;99.90;;;;;;4997136;28;20105;-84
2021/07/05 05:13:36;;;;;;;10.00;9.00;;;18.60;99.90;;;;;;4997096;28;20116;-85
2021/07/05 05:16:02;;;;;;;10.63;8.30;;;18.70;99.90;;;;;;5014493;28;20033;-84
2021/07/05 05:18:28;;;;;;;12.27;7.55;;;18.80;99.90;;;;;;4995971;28;20018;-85
2021/07/05 05:20:55;;;;;;;10.18;8.15;;;18.90;99.90;;;;;;4996492;28;20080;-86
2021/07/05 05:23:21;;;;;;;14.38;9.27;;;19.10;98.90;;;;;;5014611;28;20018;-87
2021/07/05 05:25:47;;;;;;;12.90;10.40;;;19.30;98.70;;;;;;4996827;28;20129;-86
2021/07/05 05:28:12;;;;;;;11.70;9.27;;;19.60;99.90;;;;;;4996515;28;20125;-84
2021/07/05 05:30:38;;;;;;;14.18;9.57;;;19.80;97.80;;;;;;4997232;28;20064;-85
2021/07/05 05:33:05;;;;;;;10.02;8.30;;;19.90;98.10;;;;;;4996803;28;20406;-85
2021/07/05 05:35:31;;;;;;;16.35;9.88;;;20.00;98.10;;;;;;4996478;28;20025;-86
2021/07/05 05:37:57;;;;;;;11.90;8.25;;;20.20;98.00;;;;;;4996636;28;20029;-86
2021/07/05 05:40:24;;;;;;;14.15;8.05;;;20.20;95.00;;;;;;4996443;28;20080;-86
2021/07/05 05:42:50;;;;;;;9.27;8.23;;;20.20;92.90;;;;;;5014079;28;20030;-85
2021/07/05 05:45:16;;;;;;;8.60;7.50;;;20.30;88.20;;;;;;4996383;28;20071;-87
2021/07/05 05:47:42;;;;;;;10.00;8.40;;;20.20;84.50;;;;;;5013994;28;20053;-85
2021/07/05 05:50:08;;;;;;;9.05;7.75;;;20.20;81.40;;;;;;4993550;28;20022;-85
2021/07/05 05:52:34;;;;;;;19.92;13.55;;;20.20;85.00;;;;;;5013271;28;20038;-84
2021/07/05 05:54:59;;;;;;;12.15;9.25;;;20.30;84.50;;;;;;4994051;28;20036;-85
2021/07/05 05:57:26;;;;;;;13.15;9.32;;;20.30;84.00;;;;;;5012185;28;20024;-84
2021/07/05 05:59:56;;;;;;;13.15;10.35;;;20.30;82.70;;;;;;4993332;28;20442;-85
2021/07/05 06:02:23;;;;;;;18.40;11.15;;;20.40;79.80;;;;;;4994300;28;20435;-85
2021/07/05 06:04:49;;;;;;;15.80;10.43;;;20.50;77.80;;;;;;4993955;28;20109;-85
2021/07/05 06:07:15;;;;;;;16.95;10.10;;;20.50;78.10;;;;;;5011433;28;20110;-84
2021/07/05 06:09:40;;;;;;;14.40;10.75;;;20.70;77.20;;;;;;5012876;28;20543;-84
2021/07/05 06:12:06;;;;;;;15.18;9.73;;;20.80;74.10;;;;;;5013637;28;20163;-84
2021/07/05 06:14:32;;;;;;;14.18;10.13;;;20.90;72.60;;;;;;4995796;28;20373;-84
2021/07/05 06:16:58;;;;;;;15.55;10.52;;;21.00;71.00;;;;;;4995999;28;20048;-84
2021/07/05 06:19:23;;;;;;;14.30;10.90;;;21.10;69.50;;;;;;5013487;28;20022;-84
2021/07/05 06:21:49;;;;;;;14.73;10.18;;;21.20;70.60;;;;;;4995831;28;20028;-85
2021/07/05 06:24:14;;;;;;;13.98;10.15;;;21.30;69.70;;;;;;4995693;28;20025;-85
2021/07/05 06:26:40;;;;;;;20.05;11.50;;;21.50;70.00;;;;;;4994922;28;20475;-84
2021/07/05 06:29:06;;;;;;;16.98;11.73;;;21.70;68.00;;;;;;4995279;28;20072;-85
2021/07/05 06:31:36;;;;;;;20.25;12.15;;;21.90;67.70;;;;;;5012614;28;20030;-84
2021/07/05 06:34:05;;;;;;;13.05;10.07;;;22.00;66.40;;;;;;5012932;28;20022;-85
2021/07/05 06:36:31;;;;;;;14.40;9.90;;;22.20;65.10;;;;;;5012925;28;20033;-85
2021/07/05 06:38:57;;;;;;;17.27;10.63;;;22.30;63.90;;;;;;4992525;28;20101;-84
2021/07/05 06:41:25;;;;;;;15.70;11.25;;;22.40;62.20;;;;;;5012813;28;20124;-85
2021/07/05 06:43:52;;;;;;;15.02;9.48;;;22.50;62.50;;;;;;4994658;28;20471;-85
2021/07/05 06:46:21;;;;;;;14.50;10.55;;;22.60;62.60;;;;;;5011058;28;20029;-85
2021/07/05 06:48:46;;;;;;;13.30;9.98;;;22.80;63.10;;;;;;5012355;28;20105;-85
2021/07/05 06:51:12;;;;;;;16.17;10.63;;;22.90;61.80;;;;;;4991976;28;20172;-86
2021/07/05 06:53:38;;;;;;;15.10;9.40;;;23.10;61.20;;;;;;4995774;28;20535;-86
2021/07/05 06:56:04;;;;;;;20.02;10.93;;;23.30;61.40;;;;;;5001919;28;20042;-85
2021/07/05 06:58:30;;;;;;;14.98;10.45;;;23.40;59.50;;;;;;4992672;28;20027;-85
2021/07/05 07:00:57;;;;;;;15.43;10.32;;;23.60;58.50;;;;;;5001661;28;20025;-84
2021/07/05 07:03:23;;;;;;;11.90;9.20;;;23.70;60.00;;;;;;4984800;28;20387;-86
2021/07/05 07:05:50;;;;;;;15.40;9.98;;;23.90;57.70;;;;;;5002647;28;20030;-84
2021/07/05 07:08:16;;;;;;;14.60;9.55;;;24.00;57.50;;;;;;4984324;28;20025;-81
2021/07/05 07:10:42;;;;;;;13.10;8.85;;;24.20;57.90;;;;;;5001300;28;20034;-83
2021/07/05 07:13:07;;;;;;;10.57;8.63;;;24.20;57.80;;;;;;4983125;28;20014;-79
2021/07/05 07:15:35;;;;;;;11.68;8.50;;;24.50;57.60;;;;;;4983719;28;20038;-79
2021/07/05 07:20:57;;;;;;;10.35;7.65;;;24.80;56.90;;;;;;4994981;28;20038;-78
2021/07/05 07:23:23;;;;;;;10.80;7.93;;;24.90;55.60;;;;;;5006042;28;20125;-78
2021/07/05 07:25:49;;;;;;;11.13;8.30;;;25.00;55.40;;;;;;4984012;28;20468;-79
2021/07/05 07:28:17;;;;;;;10.43;6.75;;;25.00;55.40;;;;;;4987922;28;20138;-79
2021/07/05 07:30:43;;;;;;;11.43;7.07;;;25.10;54.10;;;;;;4988901;28;20022;-79
2021/07/05 07:33:09;;;;;;;7.10;5.57;;;25.30;54.30;;;;;;5001690;28;20423;-79
2021/07/05 07:35:35;;;;;;;8.35;6.20;;;25.50;53.40;;;;;;5004390;28;20037;-78
2021/07/05 07:38:01;;;;;;;7.15;5.35;;;25.60;51.70;;;;;;4985958;28;20062;-79
2021/07/05 07:40:30;;;;;;;5.93;5.38;;;25.80;50.00;;;;;;4988470;28;20113;-79
2021/07/05 07:42:56;;;;;;;5.47;4.97;;;25.90;49.30;;;;;;5005212;28;20391;-79
2021/07/05 07:45:22;;;;;;;10.05;6.00;;;26.00;48.50;;;;;;4989703;28;20040;-79
2021/07/05 07:47:48;;;;;;;6.90;5.35;;;26.20;49.10;;;;;;4984282;28;20058;-80
2021/07/05 07:50:16;;;;;;;5.82;5.22;;;26.20;47.50;;;;;;4988395;28;20506;-79
2021/07/05 07:52:42;;;;;;;5.07;4.60;;;26.20;47.80;;;;;;5003712;28;20026;-80
2021/07/05 07:55:10;;;;;;;5.28;4.78;;;26.20;47.50;;;;;;4994630;28;20046;-80
2021/07/05 07:57:37;;;;;;;5.20;4.28;;;26.20;47.20;;;;;;4970645;28;20026;-80
2021/07/05 08:00:06;;;;;;;5.75;5.07;;;26.20;46.20;;;;;;4967463;28;20027;-80
2021/07/05 08:02:31;;;;;;;6.32;5.05;;;26.20;46.80;;;;;;4960597;28;20015;-79
2021/07/05 08:04:57;;;;;;;5.63;5.13;;;26.40;46.30;;;;;;4964304;28;20403;-79
2021/07/05 08:07:23;;;;;;;6.53;5.32;;;26.50;45.80;;;;;;4959259;28;20023;-79
2021/07/05 08:09:49;;;;;;;5.50;5.00;;;26.50;45.60;;;;;;4976357;28;20045;-79
2021/07/05 08:12:14;;;;;;;6.40;5.78;;;26.60;44.80;;;;;;4960611;28;20022;-80
2021/07/05 08:14:40;;;;;;;6.28;5.28;;;26.70;45.30;;;;;;4980031;28;20399;-79
2021/07/05 08:17:05;;;;;;;5.60;4.88;;;26.90;46.20;;;;;;4975505;28;20084;-80
2021/07/05 08:19:31;;;;;;;6.60;5.15;;;27.00;45.30;;;;;;4987354;28;20477;-79
2021/07/05 08:21:57;;;;;;;7.10;5.18;;;27.10;43.50;;;;;;4983732;28;20085;-80
2021/07/05 08:24:23;;;;;;;5.88;5.30;;;27.10;43.40;;;;;;4958521;28;20022;-79
2021/07/05 08:26:49;;;;;;;7.85;5.30;;;27.10;44.20;;;;;;4958947;28;20366;-79
2021/07/05 08:29:14;;;;;;;7.53;5.38;;;27.10;44.20;;;;;;4958461;28;20544;-79
2021/07/05 08:31:40;;;;;;;6.65;5.05;;;27.30;43.90;;;;;;4958980;28;20393;-79
2021/07/05 08:34:06;;;;;;;5.75;5.13;;;27.30;43.40;;;;;;4958203;28;20157;-79
2021/07/05 08:36:32;;;;;;;5.28;4.78;;;27.40;43.80;;;;;;4957541;28;20145;-80
2021/07/05 08:38:57;;;;;;;8.38;5.00;;;27.60;44.40;;;;;;4965361;28;20037;-79
2021/07/05 08:41:23;;;;;;;7.38;5.00;;;27.70;44.50;;;;;;5003828;28;20022;-79
2021/07/05 08:43:51;;;;;;;7.80;6.22;;;27.80;43.80;;;;;;4991781;28;20113;-79
2021/07/05 08:46:21;;;;;;;5.80;4.90;;;27.90;43.40;;;;;;4980900;28;20022;-79
2021/07/05 08:48:47;;;;;;;4.88;4.35;;;27.80;42.20;;;;;;4995503;28;20080;-79
2021/07/05 08:51:16;;;;;;;10.40;6.15;;;27.90;42.30;;;;;;4982592;28;20065;-80
2021/07/05 08:53:42;;;;;;;6.68;5.00;;;28.00;41.60;;;;;;4995136;28;20028;-79
2021/07/05 08:56:09;;;;;;;6.32;4.97;;;27.80;40.60;;;;;;5012404;28;20097;-79
2021/07/05 08:58:36;;;;;;;5.32;4.82;;;27.70;41.60;;;;;;4995108;28;20021;-79
2021/07/05 09:01:02;;;;;;;6.53;5.93;;;27.70;41.30;;;;;;5012159;28;20028;-79
2021/07/05 09:03:30;;;;;;;6.05;4.97;;;27.70;41.60;;;;;;4994396;28;20048;-79
2021/07/05 09:06:18;;;;;;;6.25;5.10;;;27.50;41.30;;;;;;4995013;28;20379;-78
2021/07/05 09:09:05;;;;;;;5.35;4.85;;;27.60;39.80;;;;;;5012475;28;20375;-78
2021/07/05 09:11:45;;;;;;;6.10;4.85;;;27.80;40.20;;;;;;5010894;28;20026;-78
2021/07/05 09:14:23;;;;;;;5.30;4.78;;;28.00;41.30;;;;;;5012617;28;20467;-79
2021/07/05 09:16:50;;;;;;;6.30;5.45;;;28.10;41.80;;;;;;5013767;28;20060;-79
2021/07/05 09:19:23;;;;;;;6.90;5.63;;;27.70;40.60;;;;;;4995896;28;20483;-79
2021/07/05 09:22:03;;;;;;;5.78;4.93;;;27.80;41.50;;;;;;5013742;28;20025;-79
2021/07/05 09:24:44;;;;;;;6.25;5.15;;;28.10;42.70;;;;;;5012066;28;20029;-78
2021/07/05 09:27:25;;;;;;;6.43;5.53;;;28.00;43.10;;;;;;4995752;28;20111;-78
2021/07/05 09:29:51;;;;;;;8.60;5.95;;;28.40;42.50;;;;;;4995870;28;20108;-78
2021/07/05 09:32:29;;;;;;;6.07;5.22;;;28.60;42.00;;;;;;4995871;28;20117;-79
2021/07/05 09:34:56;;;;;;;12.80;6.05;;;28.70;42.00;;;;;;5012145;28;20029;-79
2021/07/05 09:37:23;;;;;;;6.53;5.47;;;28.90;42.00;;;;;;4995687;28;20067;-80
2021/07/05 09:40:00;;;;;;;6.32;5.70;;;29.00;41.20;;;;;;4994450;28;20513;-79
2021/07/05 09:42:27;;;;;;;5.50;4.80;;;29.00;40.00;;;;;;4995245;28;20069;-80
2021/07/05 09:44:53;;;;;;;5.00;4.38;;;29.00;39.50;;;;;;4994786;28;20076;-79
2021/07/05 09:47:19;;;;;;;7.35;5.30;;;29.00;39.10;;;;;;5012796;28;20032;-78
2021/07/05 09:49:46;;;;;;;5.22;4.72;;;28.70;39.60;;;;;;4995618;28;20380;-78
2021/07/05 09:52:20;;;;;;;5.50;4.93;;;28.60;39.50;;;;;;4996022;28;20029;-77
2021/07/05 09:54:50;;;;;;;5.18;4.30;;;28.70;38.40;;;;;;5013514;28;20475;-78
2021/07/05 10:00:20;;;;;;;6.50;5.75;;;28.50;38.30;;;;;;5013785;28;20071;-78
2021/07/05 10:03:08;;;;;;;6.78;5.55;;;28.60;39.00;;;;;;5011319;28;20034;-78
2021/07/05 10:05:50;;;;;;;7.07;6.43;;;29.00;39.80;;;;;;4995749;28;20064;-78
2021/07/05 10:08:18;;;;;;;8.52;6.53;;;28.80;38.10;;;;;;4995583;28;20025;-78
2021/07/05 10:10:46;;;;;;;9.77;6.22;;;28.80;40.00;;;;;;4995889;28;20510;-77
2021/07/05 10:13:17;;;;;;;8.40;6.75;;;28.50;41.60;;;;;;5004550;28;20030;-78
2021/07/05 10:15:46;;;;;;;9.63;7.78;;;28.50;43.20;;;;;;4993770;28;20125;-78
2021/07/05 10:18:12;;;;;;;10.55;6.68;;;28.10;42.70;;;;;;5010973;28;20026;-77
2021/07/05 10:20:42;;;;;;;10.65;7.75;;;28.10;42.90;;;;;;4993866;28;20030;-76
2021/07/05 10:23:14;;;;;;;11.07;8.52;;;28.20;43.60;;;;;;5010664;28;20029;-78
2021/07/05 10:25:43;;;;;;;12.07;7.78;;;28.10;43.00;;;;;;4993934;28;20062;-77
2021/07/05 10:28:09;;;;;;;11.10;8.32;;;28.20;44.10;;;;;;4992491;28;20113;-78
2021/07/05 10:30:36;;;;;;;11.45;7.93;;;28.40;44.00;;;;;;4993480;28;20454;-77
2021/07/05 10:33:03;;;;;;;12.35;8.20;;;28.10;43.60;;;;;;4993925;28;20998;-77
2021/07/05 10:35:50;;;;;;;10.23;7.00;;;27.80;44.50;;;;;;4993136;28;20042;-77
2021/07/05 10:38:34;;;;;;;10.40;7.13;;;27.40;45.10;;;;;;4990625;28;20057;-78
2021/07/05 10:41:12;;;;;;;11.70;8.13;;;27.10;45.40;;;;;;5008748;28;20480;-77
2021/07/05 10:43:54;;;;;;;9.30;6.72;;;27.10;45.30;;;;;;4991614;28;20391;-78
2021/07/05 10:46:37;;;;;;;6.05;5.20;;;27.10;44.70;;;;;;5005368;28;20037;-77
2021/07/05 10:49:03;;;;;;;7.28;4.50;;;27.30;42.50;;;;;;5010772;28;20026;-78
2021/07/05 10:51:44;;;;;;;5.88;4.15;;;27.50;42.60;;;;;;5010891;28;20089;-78
2021/07/05 10:54:10;;;;;;;7.28;4.82;;;27.40;40.10;;;;;;4992137;28;20022;-78
2021/07/05 10:56:44;;;;;;;8.10;5.20;;;27.50;39.50;;;;;;4993019;28;20116;-76
2021/07/05 10:59:13;;;;;;;6.20;5.60;;;27.90;39.30;;;;;;4992514;28;20014;-77
2021/07/05 11:01:44;;;;;;;5.95;5.30;;;28.30;40.70;;;;;;4993462;28;20030;-77
2021/07/05 11:04:31;;;;;;;5.07;4.57;;;28.60;40.70;;;;;;5010373;28;20081;-77
2021/07/05 11:06:59;;;;;;;4.43;4.03;;;29.00;40.00;;;;;;5011185;28;20073;-77
2021/07/05 11:09:26;;;;;;;5.43;4.93;;;29.00;37.30;;;;;;5009615;28;20510;-76
2021/07/05 11:11:58;;;;;;;5.47;4.55;;;29.10;37.30;;;;;;4990366;28;20483;-78
2021/07/05 11:14:37;;;;;;;8.05;5.20;;;29.20;38.30;;;;;;4992817;28;20416;-77
2021/07/05 11:17:08;;;;;;;7.22;5.05;;;28.90;38.30;;;;;;5011073;28;20054;-77
2021/07/05 11:19:46;;;;;;;6.00;4.97;;;29.10;39.70;;;;;;4993337;28;20499;-77
2021/07/05 11:22:29;;;;;;;5.57;5.07;;;29.40;39.40;;;;;;4992592;28;20022;-78
2021/07/05 11:25:17;;;;;;;6.15;4.60;;;29.20;38.30;;;;;;4993596;28;20026;-78
2021/07/05 11:27:53;;;;;;;5.00;4.60;;;28.70;37.40;;;;;;4983829;28;20036;-78
2021/07/05 11:30:28;;;;;;;5.35;4.80;;;28.60;37.20;;;;;;4992253;28;20034;-78
2021/07/05 11:33:01;;;;;;;7.65;5.38;;;28.50;37.60;;;;;;4993097;28;20034;-78
2021/07/05 11:35:32;;;;;;;6.50;5.90;;;28.30;37.80;;;;;;4992454;28;20386;-77
2021/07/05 11:38:23;;;;;;;5.53;5.03;;;28.10;38.90;;;;;;5010908;28;20387;-77
2021/07/05 11:40:54;;;;;;;6.45;5.80;;;27.90;39.20;;;;;;4979052;28;20069;-77
2021/07/05 11:44:04;;;;;;;5.43;5.03;;;28.10;40.70;;;;;;4992354;28;20034;-76
2021/07/05 11:46:30;;;;;;;8.80;5.70;;;28.30;39.70;;;;;;4999466;28;20568;-77
2021/07/05 11:49:07;;;;;;;6.43;5.70;;;28.50;39.40;;;;;;5010715;28;20149;-77
2021/07/05 11:51:44;;;;;;;5.90;5.30;;;28.50;39.40;;;;;;4996486;28;20049;-76
2021/07/05 11:54:27;;;;;;;8.98;5.78;;;28.40;38.20;;;;;;5010693;28;20029;-77
2021/07/05 11:56:55;;;;;;;8.73;5.47;;;28.20;39.60;;;;;;5011985;28;20034;-78
2021/07/05 11:59:30;;;;;;;6.32;5.72;;;27.90;40.70;;;;;;4991142;28;20037;-78
2021/07/05 12:02:13;;;;;;;7.97;5.80;;;27.70;41.50;;;;;;4990387;28;20290;-77
2021/07/05 12:04:39;;;;;;;;;;;27.70;42.60;;;;;;4996403;28;20352;-77
2021/07/05 12:07:08;;;;;;;6.40;5.80;;;27.60;42.50;;;;;;5012746;28;19920;-77
2021/07/05 12:09:34;;;;;;;6.65;5.97;;;27.50;42.10;;;;;;5013316;28;20426;-77
2021/07/05 12:12:14;;;;;;;6.85;5.47;;;27.30;41.40;;;;;;4996215;28;20022;-76
2021/07/05 12:14:41;;;;;;;6.90;5.70;;;27.10;42.10;;;;;;4996300;28;20029;-77
2021/07/05 12:17:08;;;;;;;6.20;5.68;;;27.20;43.20;;;;;;5012325;28;20014;-77
2021/07/05 12:19:37;;;;;;;8.02;6.00;;;27.20;43.50;;;;;;5013508;28;20412;-77
2021/07/05 12:22:08;;;;;;;9.10;6.38;;;27.30;44.10;;;;;;5012506;28;20084;-77
2021/07/05 12:24:59;;;;;;;8.55;7.18;;;27.30;43.80;;;;;;4996177;28;20030;-76
2021/07/05 12:27:30;;;;;;;9.27;7.35;;;27.10;43.50;;;;;;5011857;28;20037;-77
2021/07/05 12:30:02;;;;;;;8.38;6.95;;;27.00;44.00;;;;;;5013798;28;20155;-76
2021/07/05 12:32:33;;;;;;;8.18;6.90;;;27.00;44.50;;;;;;5012245;28;20117;-76
2021/07/05 12:35:02;;;;;;;12.13;7.38;;;27.00;45.00;;;;;;5013088;28;20030;-76
2021/07/05 12:37:36;;;;;;;12.10;8.02;;;27.10;45.90;;;;;;5012462;28;20129;-76
2021/07/05 12:40:01;;;;;;;9.27;7.53;;;27.10;44.80;;;;;;5013583;28;20022;-76
2021/07/05 12:42:56;;;;;;;10.63;7.35;;;27.10;45.70;;;;;;5012232;28;20049;-76
2021/07/05 12:45:29;;;;;;;10.50;6.65;;;27.40;45.90;;;;;;5009076;28;20042;-76
2021/07/05 12:48:17;;;;;;;11.18;7.25;;;27.60;43.50;;;;;;4995329;28;20139;-76
2021/07/05 12:50:45;;;;;;;9.77;6.55;;;27.70;43.90;;;;;;5008436;28;20030;-76
2021/07/05 12:53:20;;;;;;;6.93;6.20;;;27.70;42.40;;;;;;5012208;28;20045;-75
2021/07/05 12:56:11;;;;;;;11.75;6.50;;;27.80;42.10;;;;;;5013351;28;20061;-76